首页
METAR-TAF:

METAR-TAF

机场 :

威斯敏斯特, 马里兰州, 美国

纬度: 39-36-30N, 经度: 077-00-28W, 海拔: 240米

当前天气观测

该预报发布于21分钟前的14:20 UTC
风速5节,风向西转西南
温度 28°C
湿度 70%
气压 1012 hPa
能見度: 16.1公里
天空无云

METAR: KDMW 221420Z AUTO 24005KT 10SM CLR 28/22 A2987 RMK AO2

时间: 10:41 (14:41 UTC)


TAF: 丢失

超过4000个机场的气象观测和天气预报(METAR&TAF报告)。

可查询的气象台以黄色和红色小点在地图上表示。

将鼠标移到小点上方,可查看气象台名称。

然后点击查看天气观测和预报。

如需切换地图:点击带黑十字的绿色按钮放大地图;点击带横线的绿色按钮缩小地图;或者点击绿色箭头查看邻近地区的地图。


METAR-TAF: